Aérodrome :
LOGIN :

S'inscrire | Disclaimer

   EN    FR    IT 

 










Légende :    VFR   VFR Marginal   IFR   IFR Intensif   IFR Très Intensif
Visi : 
Plafond : 
>= 8 km
>= 3000ft
5 à 8 km
1000 à 3000 ft
1500m à 5 km
500 à 1000 ft
800 à 1500m
200 à 500 ft
< 800m
< 200 ft
Symboles :   Orages  Brouillard  Fortes neiges  Fortes précipitations  Vent > 20 kt
SIGMETs :   Divers  Orages  Givrage  Turbulence  Onde Orograph.  Cendres Volcan.







- Altitude de l'aérodrome : 1300 ft
- Code IATA : LIG
- Voir les cartes d'approche


LFBL - Limoges

DERNIER METAR :
  • 130500Z AUTO 27003KT CAVOK 09/08 Q1026 TEMPO 0300 FG VV///

METARs EXPIRÉS :
  • 130430Z AUTO 26003KT 9999 1200 R21/P5000 R03/1600D VV/// 09/08 Q1025 TEMPO 0400 FG
  • 130400Z AUTO 20003KT 0550 0400 R21/0650D R03/0500D FG VV/// 09/08 Q1025 TEMPO 0800 FG OVC001
  • 130330Z AUTO VRB02KT 1000 0650 R21/2300D R03/1100D BCFG OVC002 09/08 Q1025 TEMPO 0400 FG VV///
  • 130300Z AUTO 28004KT 1200 0900 R21/P5000 R03/1100N BCFG BKN002 BKN086 OVC100 09/09 Q1025 TEMPO 2500 BR NSC
  • 130230Z AUTO 22003KT 9999 BKN003 OVC100 09/09 Q1024 TEMPO NSC BECMG 0800 FG

TAF AMD TAF LFBL
Valide du 13 à 04h jusqu'au 14 à 00h UTC


130429Z 1304/1324 VRB03KT 2500 BR BKN002
BECMG 1304/1306 0800 FG OVC001
TEMPO 1304/1308 0300 FG VV///
BECMG 1308/1310 9999 SCT006
BECMG 1310/1312 CAVOK
BECMG 1312/1314 02007KT
BECMG 1318/1320 VRB03KT
ATIS : +33 5 55 48 40 37
Pas de NOTAMs connus pour ce terrain.



MET'MAP, la Météo Aéronautique d'un coup d'oeil ! - Copyright ORBIFLY Décembre 2007 - Disclaimer

ORBIFLY MET'MAP TEAM :

Programmation & Développement : Alexandra Zaïnal
Conception & Développement : Baudouin d'Aumeries
Co-Programmation & Développement : Marc-Olivier Méhu
Soutien technique & logistique : Manuel Goepfert

Contact : metmap@orbifly.com




SOURCES & CREDITS :

   NOAA